createdAt,value
2017-08-29T00:01:13.378Z,96.50
2017-08-29T00:03:39.632Z,96.70
2017-08-29T00:06:05.869Z,96.90
2017-08-29T00:08:32.077Z,96.50
2017-08-29T00:10:58.354Z,96.70
2017-08-29T00:13:24.568Z,96.90
2017-08-29T00:15:50.796Z,96.80
2017-08-29T00:18:17.259Z,96.60
2017-08-29T00:20:43.491Z,96.80
2017-08-29T00:23:09.714Z,97.00
2017-08-29T00:25:36.245Z,97.00
2017-08-29T00:28:02.454Z,97.00
2017-08-29T00:30:28.696Z,97.10
2017-08-29T00:32:55.137Z,97.20
2017-08-29T00:35:21.395Z,97.10
2017-08-29T00:37:47.645Z,97.20
2017-08-29T00:40:13.989Z,97.10
2017-08-29T00:42:40.239Z,97.20
2017-08-29T00:45:06.476Z,97.20
2017-08-29T00:47:33.022Z,97.10
2017-08-29T00:49:59.284Z,96.90
2017-08-29T00:52:25.530Z,96.80
2017-08-29T00:54:51.782Z,97.00
2017-08-29T00:57:18.037Z,96.90
2017-08-29T00:59:44.565Z,97.10
2017-08-29T01:02:10.830Z,97.00
2017-08-29T01:04:37.058Z,97.10
2017-08-29T01:07:03.666Z,97.30
2017-08-29T01:09:29.914Z,97.60
2017-08-29T01:11:56.170Z,97.20
2017-08-29T01:14:22.418Z,96.90
2017-08-29T01:16:48.662Z,97.20
2017-08-29T01:19:14.907Z,97.20
2017-08-29T01:21:41.185Z,97.20
2017-08-29T01:24:07.443Z,97.40
2017-08-29T01:26:33.676Z,97.40
2017-08-29T01:28:59.942Z,97.20
2017-08-29T01:31:26.218Z,97.30
2017-08-29T01:33:52.445Z,97.20
2017-08-29T01:36:18.705Z,97.30
2017-08-29T01:38:44.920Z,97.20
2017-08-29T01:41:11.155Z,97.30
2017-08-29T01:43:37.420Z,97.30
2017-08-29T01:46:03.663Z,97.50
2017-08-29T01:48:29.904Z,97.40
2017-08-29T01:50:56.221Z,97.60
2017-08-29T01:53:22.467Z,97.40
2017-08-29T01:55:48.690Z,97.50
2017-08-29T01:58:15.256Z,97.40
2017-08-29T02:00:41.484Z,97.50
2017-08-29T02:03:07.738Z,97.50
2017-08-29T02:05:33.996Z,97.70
2017-08-29T02:08:00.347Z,97.60
2017-08-29T02:10:26.575Z,97.70
2017-08-29T02:12:52.920Z,97.50
2017-08-29T02:15:19.131Z,97.50
2017-08-29T02:17:45.344Z,97.70
2017-08-29T02:20:11.596Z,97.50
2017-08-29T02:22:37.796Z,97.70
2017-08-29T02:25:04.016Z,97.60
2017-08-29T02:27:30.428Z,97.60
2017-08-29T02:29:56.647Z,98.00
2017-08-29T02:32:22.862Z,97.90
2017-08-29T02:34:49.126Z,97.80
2017-08-29T02:37:15.331Z,97.80
2017-08-29T02:39:41.531Z,97.70
2017-08-29T02:42:07.764Z,97.90
2017-08-29T02:44:33.991Z,97.70
2017-08-29T02:47:00.193Z,97.80
2017-08-29T02:49:26.515Z,97.90
2017-08-29T02:51:52.725Z,97.80
2017-08-29T02:54:18.941Z,97.70
2017-08-29T02:56:45.160Z,97.80
2017-08-29T02:59:11.371Z,97.80
2017-08-29T03:01:37.594Z,97.80
2017-08-29T03:04:03.840Z,98.00
2017-08-29T03:06:30.054Z,97.70
2017-08-29T03:08:56.799Z,97.70
2017-08-29T03:11:22.991Z,98.10
2017-08-29T03:13:49.195Z,97.60
2017-08-29T03:16:15.435Z,97.70
2017-08-29T03:18:41.638Z,97.60
2017-08-29T03:21:07.857Z,97.60
2017-08-29T03:23:34.093Z,97.70
2017-08-29T03:26:00.293Z,97.60
2017-08-29T03:28:26.500Z,97.70
2017-08-29T03:30:52.944Z,97.70
2017-08-29T03:33:19.150Z,97.60
2017-08-29T03:35:45.360Z,97.80
2017-08-29T03:38:11.930Z,97.80
2017-08-29T03:40:38.127Z,97.80
2017-08-29T03:43:04.332Z,97.80
2017-08-29T03:45:30.568Z,97.70
2017-08-29T03:47:56.774Z,97.80
2017-08-29T03:50:22.993Z,97.70
2017-08-29T03:52:49.236Z,97.80
2017-08-29T03:55:15.441Z,97.60
2017-08-29T03:57:41.648Z,97.50
2017-08-29T04:00:07.948Z,97.50
2017-08-29T04:02:34.164Z,97.60
2017-08-29T04:05:00.370Z,97.50
2017-08-29T04:07:26.596Z,97.70
2017-08-29T04:09:52.843Z,97.50
2017-08-29T04:12:19.049Z,97.50
2017-08-29T04:14:45.297Z,97.50
2017-08-29T04:17:11.505Z,97.60
2017-08-29T04:19:37.738Z,97.60
2017-08-29T04:22:03.931Z,97.50
2017-08-29T04:24:30.142Z,97.50
2017-08-29T04:26:56.702Z,97.80
2017-08-29T04:29:22.919Z,97.30
2017-08-29T04:31:49.124Z,97.40
2017-08-29T04:34:16.234Z,97.30
2017-08-29T04:36:43.531Z,97.40
2017-08-29T04:39:11.023Z,97.20
2017-08-29T04:41:38.542Z,97.40
2017-08-29T04:44:05.413Z,97.60
2017-08-29T04:46:32.423Z,97.20
2017-08-29T04:49:00.405Z,97.20
2017-08-29T04:51:27.434Z,97.20
2017-08-29T04:53:54.418Z,96.90
2017-08-29T04:56:24.552Z,97.00
2017-08-29T04:58:51.738Z,97.00
2017-08-29T05:01:20.689Z,97.10
2017-08-29T05:03:49.017Z,97.00
2017-08-29T05:06:15.310Z,96.90
2017-08-29T05:08:41.539Z,96.90
2017-08-29T05:11:07.796Z,96.80
2017-08-29T05:13:34.016Z,96.90
2017-08-29T05:16:00.509Z,96.90
2017-08-29T05:18:27.760Z,97.30
2017-08-29T05:20:53.971Z,96.90
2017-08-29T05:23:20.220Z,97.10
2017-08-29T05:25:46.648Z,96.80
2017-08-29T05:28:12.851Z,96.70
2017-08-29T05:30:39.095Z,96.80
2017-08-29T05:33:05.316Z,96.70
2017-08-29T05:35:31.532Z,96.80
2017-08-29T05:37:57.742Z,96.70
2017-08-29T05:40:23.969Z,96.70
2017-08-29T05:42:50.224Z,96.50
2017-08-29T05:45:16.432Z,96.40
2017-08-29T05:47:42.639Z,96.40
2017-08-29T05:50:09.231Z,96.30
2017-08-29T05:52:35.475Z,96.30
2017-08-29T05:55:01.753Z,96.00
2017-08-29T05:57:28.028Z,95.90
2017-08-29T05:59:54.387Z,95.90
2017-08-29T06:02:20.651Z,95.70
2017-08-29T06:04:46.879Z,95.70
2017-08-29T06:07:13.107Z,95.50
2017-08-29T06:09:39.680Z,95.40
2017-08-29T06:12:05.958Z,95.50
2017-08-29T06:14:32.222Z,95.40
2017-08-29T06:16:58.452Z,95.20
2017-08-29T06:19:24.755Z,95.20
2017-08-29T06:21:50.963Z,95.10
2017-08-29T06:24:17.172Z,94.90
2017-08-29T06:26:43.958Z,95.20
2017-08-29T06:29:10.186Z,94.70
2017-08-29T06:31:36.938Z,94.60
2017-08-29T06:34:03.154Z,94.50
2017-08-29T06:36:29.379Z,94.40
2017-08-29T06:38:55.839Z,94.50
2017-08-29T06:41:22.359Z,94.40
2017-08-29T06:43:48.689Z,94.50
2017-08-29T06:46:15.239Z,94.00
2017-08-29T06:48:41.464Z,93.70
2017-08-29T06:51:07.667Z,93.60
2017-08-29T06:53:34.131Z,93.30
2017-08-29T06:56:00.488Z,93.40
2017-08-29T06:58:26.715Z,92.90
2017-08-29T07:00:52.960Z,92.80
2017-08-29T07:03:19.154Z,92.50
2017-08-29T07:05:45.356Z,92.70
2017-08-29T07:08:11.571Z,92.70
2017-08-29T07:10:37.796Z,92.60
2017-08-29T07:13:04.049Z,92.40
2017-08-29T07:15:30.291Z,92.70
2017-08-29T07:17:56.483Z,91.90
2017-08-29T07:20:22.800Z,91.60
2017-08-29T07:22:49.000Z,91.80
2017-08-29T07:25:15.215Z,90.80
2017-08-29T07:27:41.452Z,91.00
2017-08-29T07:30:07.664Z,91.30
2017-08-29T07:32:34.139Z,90.60
2017-08-29T07:35:00.359Z,90.60
2017-08-29T07:37:26.562Z,90.10
2017-08-29T07:39:53.092Z,88.80
2017-08-29T07:42:19.303Z,90.00
2017-08-29T07:44:45.501Z,88.80
2017-08-29T07:47:11.746Z,89.40
2017-08-29T07:49:37.975Z,88.40
2017-08-29T07:52:04.209Z,86.90
2017-08-29T07:54:30.657Z,88.10
2017-08-29T07:56:56.890Z,87.30
2017-08-29T07:59:23.164Z,85.70
2017-08-29T08:01:49.492Z,86.40
2017-08-29T08:04:15.720Z,86.00
2017-08-29T08:06:41.943Z,86.00
2017-08-29T08:09:08.195Z,84.60
2017-08-29T08:11:34.430Z,85.60
2017-08-29T08:14:00.668Z,84.60
2017-08-29T08:16:27.219Z,85.20
2017-08-29T08:18:53.472Z,85.50
2017-08-29T08:21:19.709Z,84.20
2017-08-29T08:23:45.925Z,83.80
2017-08-29T08:26:12.160Z,82.60
2017-08-29T08:28:38.435Z,83.20
2017-08-29T08:31:04.766Z,81.40
2017-08-29T08:33:30.964Z,81.30
2017-08-29T08:35:57.440Z,81.20
2017-08-29T08:38:23.642Z,81.50
2017-08-29T08:40:49.909Z,80.70
2017-08-29T08:43:16.152Z,81.50
2017-08-29T08:45:42.360Z,81.30
2017-08-29T08:48:08.573Z,80.00
2017-08-29T08:50:35.399Z,79.80
2017-08-29T08:53:01.616Z,80.80
2017-08-29T08:55:27.824Z,78.60
2017-08-29T08:58:01.305Z,79.60
2017-08-29T09:00:27.572Z,79.80
2017-08-29T09:02:53.800Z,77.50
2017-08-29T09:05:20.048Z,78.40
2017-08-29T09:07:46.267Z,78.80
2017-08-29T09:10:12.529Z,78.70
2017-08-29T09:12:38.729Z,78.10
2017-08-29T09:15:04.963Z,78.30
2017-08-29T09:17:31.319Z,77.70
2017-08-29T09:19:57.594Z,77.50
2017-08-29T09:22:23.827Z,77.60
2017-08-29T09:24:50.076Z,77.20
2017-08-29T09:27:16.291Z,76.00
2017-08-29T09:29:42.619Z,76.00
2017-08-29T09:32:08.861Z,75.60
2017-08-29T09:34:35.055Z,76.60
2017-08-29T09:37:01.330Z,75.40
2017-08-29T09:39:27.555Z,73.50
2017-08-29T09:41:53.761Z,73.70
2017-08-29T09:44:19.969Z,74.40
2017-08-29T09:46:46.620Z,74.70
2017-08-29T09:49:12.836Z,72.90
2017-08-29T09:51:39.056Z,74.40
2017-08-29T09:54:05.352Z,73.20
2017-08-29T09:56:31.586Z,74.60
2017-08-29T09:58:57.815Z,72.70
2017-08-29T10:01:24.077Z,71.80
2017-08-29T10:03:50.275Z,72.80
2017-08-29T10:06:16.484Z,71.60
2017-08-29T10:08:42.719Z,72.20
2017-08-29T10:11:08.936Z,72.60
2017-08-29T10:13:35.720Z,71.10
2017-08-29T10:16:02.333Z,70.20
2017-08-29T10:18:28.568Z,70.50
2017-08-29T10:20:55.076Z,70.30
2017-08-29T10:23:21.326Z,69.90
2017-08-29T10:25:47.540Z,70.10
2017-08-29T10:28:13.747Z,69.30
2017-08-29T10:30:39.997Z,69.10
2017-08-29T10:33:06.444Z,68.80
2017-08-29T10:35:33.000Z,69.00
2017-08-29T10:37:59.374Z,69.90
2017-08-29T10:40:25.698Z,69.20
2017-08-29T10:42:51.908Z,70.20
2017-08-29T10:45:18.173Z,69.00
2017-08-29T10:47:44.407Z,69.60
2017-08-29T10:50:10.646Z,69.00
2017-08-29T10:52:36.892Z,66.60
2017-08-29T10:55:03.259Z,66.50
2017-08-29T10:57:29.518Z,67.90
2017-08-29T10:59:55.735Z,68.00
2017-08-29T11:02:21.958Z,65.20
2017-08-29T11:04:48.872Z,67.10
2017-08-29T11:07:15.102Z,65.30
2017-08-29T11:09:41.331Z,66.60
2017-08-29T11:12:07.548Z,67.50
2017-08-29T11:14:33.815Z,66.60
2017-08-29T11:17:00.031Z,65.50
2017-08-29T11:19:26.258Z,65.30
2017-08-29T11:21:52.525Z,64.00
2017-08-29T11:24:18.778Z,66.00
2017-08-29T11:26:45.075Z,66.50
2017-08-29T11:29:11.728Z,67.30
2017-08-29T11:31:37.951Z,65.50
2017-08-29T11:34:04.182Z,65.60
2017-08-29T11:36:30.467Z,65.30
2017-08-29T11:38:56.694Z,65.50
2017-08-29T11:41:22.918Z,65.80
2017-08-29T11:43:49.171Z,66.50
2017-08-29T11:46:15.395Z,65.70
2017-08-29T11:48:41.654Z,65.30
2017-08-29T11:51:07.892Z,65.00
2017-08-29T11:53:34.139Z,65.40
2017-08-29T11:56:00.384Z,64.00
2017-08-29T11:58:26.700Z,64.60
2017-08-29T12:00:52.981Z,64.90
2017-08-29T12:03:19.224Z,60.80
2017-08-29T12:05:45.466Z,61.50
2017-08-29T12:08:11.724Z,59.90
2017-08-29T12:10:37.975Z,60.30
2017-08-29T12:13:04.187Z,57.80
2017-08-29T12:15:30.404Z,51.10
2017-08-29T12:17:56.644Z,45.50
2017-08-29T12:20:22.874Z,40.20
2017-08-29T12:22:49.316Z,38.50
2017-08-29T12:25:15.655Z,34.60
2017-08-29T12:27:41.855Z,35.40
2017-08-29T12:30:08.078Z,34.60
2017-08-29T12:32:34.777Z,33.30
2017-08-29T12:35:00.990Z,33.40
2017-08-29T12:37:27.215Z,32.00
2017-08-29T12:39:53.535Z,30.10
2017-08-29T12:42:19.743Z,29.10
2017-08-29T12:44:45.976Z,30.10
2017-08-29T12:47:12.252Z,30.20
2017-08-29T12:49:38.476Z,29.10
2017-08-29T12:52:04.699Z,28.20
2017-08-29T12:54:30.937Z,27.10
2017-08-29T12:56:57.195Z,28.20
2017-08-29T12:59:23.426Z,28.80
2017-08-29T13:01:49.669Z,28.20
2017-08-29T13:04:15.902Z,27.00
2017-08-29T13:06:42.117Z,26.30
2017-08-29T13:09:08.333Z,26.80
2017-08-29T13:11:34.668Z,26.70
2017-08-29T13:14:00.887Z,27.00
2017-08-29T13:16:27.092Z,28.20
2017-08-29T13:18:53.340Z,27.90
2017-08-29T13:21:19.564Z,27.70
2017-08-29T13:23:45.800Z,27.20
2017-08-29T13:26:12.092Z,25.70
2017-08-29T13:28:38.299Z,26.20
2017-08-29T13:31:04.512Z,26.60
2017-08-29T13:33:32.583Z,26.80
2017-08-29T13:35:58.787Z,26.20
2017-08-29T13:38:24.991Z,25.60
2017-08-29T13:40:51.222Z,26.70
2017-08-29T13:43:17.439Z,26.40
2017-08-29T13:45:43.651Z,26.00
2017-08-29T13:48:10.093Z,27.30
2017-08-29T13:50:36.293Z,26.60
2017-08-29T13:53:02.535Z,26.40
2017-08-29T13:55:28.749Z,27.40
2017-08-29T13:57:54.951Z,27.30
2017-08-29T14:00:21.172Z,26.70
2017-08-29T14:02:47.408Z,27.90
2017-08-29T14:05:20.678Z,28.80
2017-08-29T14:07:46.906Z,28.40
2017-08-29T14:10:13.167Z,28.20
2017-08-29T14:12:39.388Z,27.70
2017-08-29T14:15:05.632Z,26.90
2017-08-29T14:17:31.971Z,27.50
2017-08-29T14:19:58.230Z,27.20
2017-08-29T14:22:24.516Z,26.90
2017-08-29T14:24:50.760Z,27.00
2017-08-29T14:27:17.002Z,27.90
2017-08-29T14:29:44.471Z,28.20
2017-08-29T14:32:18.592Z,28.20
2017-08-29T14:34:53.228Z,30.00
2017-08-29T14:37:20.617Z,29.90
2017-08-29T14:39:47.828Z,29.10
2017-08-29T14:42:15.372Z,29.10
2017-08-29T14:44:42.690Z,29.30
2017-08-29T14:47:28.156Z,30.10
2017-08-29T14:49:56.539Z,32.90
2017-08-29T14:52:23.939Z,37.00
2017-08-29T14:54:51.366Z,40.30
2017-08-29T14:57:19.569Z,43.10
2017-08-29T14:59:46.745Z,45.00
2017-08-29T15:02:14.950Z,47.50
2017-08-29T15:04:42.181Z,48.50
2017-08-29T15:07:09.435Z,48.90
2017-08-29T15:09:36.563Z,48.30
2017-08-29T15:12:04.072Z,48.90
2017-08-29T15:14:31.131Z,48.30
2017-08-29T15:17:00.419Z,47.90
2017-08-29T15:19:27.896Z,49.80
2017-08-29T15:21:56.731Z,48.10
2017-08-29T15:24:25.034Z,48.20
2017-08-29T15:26:52.408Z,50.00
2017-08-29T15:29:19.746Z,51.00
2017-08-29T15:31:47.826Z,52.50
2017-08-29T15:34:15.193Z,53.60
2017-08-29T15:36:42.674Z,54.30
2017-08-29T15:39:10.528Z,55.00
2017-08-29T15:41:37.785Z,56.40
2017-08-29T15:44:05.365Z,55.90
2017-08-29T15:46:32.732Z,57.10
2017-08-29T15:49:00.032Z,57.20
2017-08-29T15:51:29.184Z,58.00
2017-08-29T15:53:56.516Z,57.80
2017-08-29T15:56:23.691Z,59.20
2017-08-29T15:58:51.612Z,58.80
2017-08-29T16:01:19.070Z,59.20
2017-08-29T16:03:47.538Z,59.50
2017-08-29T16:06:14.960Z,59.70
2017-08-29T16:08:42.306Z,59.80
2017-08-29T16:11:10.514Z,60.10
2017-08-29T16:13:38.635Z,59.80
2017-08-29T16:16:06.015Z,60.00
2017-08-29T16:18:33.586Z,60.60
2017-08-29T16:21:01.015Z,61.30
2017-08-29T16:23:28.338Z,61.80
2017-08-29T16:25:55.868Z,62.00
2017-08-29T16:28:23.741Z,62.30
2017-08-29T16:30:51.607Z,63.60
2017-08-29T16:33:22.138Z,64.50
2017-08-29T16:35:50.206Z,65.30
2017-08-29T16:38:18.074Z,66.30
2017-08-29T16:40:46.472Z,65.90
2017-08-29T16:43:14.658Z,64.60
2017-08-29T16:45:42.439Z,65.40
2017-08-29T16:48:10.842Z,65.60
2017-08-29T16:50:39.387Z,66.10
2017-08-29T16:53:07.706Z,66.00
2017-08-29T16:55:36.834Z,65.30
2017-08-29T16:58:04.808Z,66.50
2017-08-29T17:00:32.691Z,67.00
2017-08-29T17:03:00.023Z,67.00
2017-08-29T17:05:27.596Z,67.20
2017-08-29T17:07:55.348Z,68.30
2017-08-29T17:10:22.660Z,69.50
2017-08-29T17:12:51.347Z,69.30
2017-08-29T17:15:18.873Z,70.70
2017-08-29T17:17:47.071Z,69.50
2017-08-29T17:20:14.579Z,71.00
2017-08-29T17:22:42.778Z,69.90
2017-08-29T17:25:10.262Z,71.10
2017-08-29T17:27:39.664Z,72.10
2017-08-29T17:30:09.280Z,71.00
2017-08-29T17:32:36.736Z,71.20
2017-08-29T17:35:05.073Z,72.00
2017-08-29T17:37:32.681Z,72.00
2017-08-29T17:40:00.721Z,71.30
2017-08-29T17:42:29.057Z,72.50
2017-08-29T17:44:56.437Z,72.70
2017-08-29T17:47:24.951Z,73.00
2017-08-29T17:49:53.507Z,72.80
2017-08-29T17:52:22.142Z,73.90
2017-08-29T17:54:49.832Z,74.30
2017-08-29T17:57:17.465Z,73.90
2017-08-29T17:59:45.888Z,73.50
2017-08-29T18:02:14.207Z,74.40
2017-08-29T18:04:41.718Z,75.80
2017-08-29T18:07:08.969Z,75.70
2017-08-29T18:09:36.609Z,76.90
2017-08-29T18:12:04.996Z,77.10
2017-08-29T18:14:32.337Z,77.10
2017-08-29T18:17:00.101Z,77.70
2017-08-29T18:19:28.327Z,78.60
2017-08-29T18:21:55.749Z,78.60
2017-08-29T18:24:23.003Z,78.90
2017-08-29T18:26:50.443Z,80.20
2017-08-29T18:29:18.116Z,80.50
2017-08-29T18:31:45.431Z,80.90
2017-08-29T18:34:12.932Z,80.70
2017-08-29T18:36:40.520Z,81.50
2017-08-29T18:39:07.875Z,82.00
2017-08-29T18:41:35.251Z,82.50
2017-08-29T18:44:02.549Z,82.60
2017-08-29T18:46:30.080Z,82.50
2017-08-29T18:48:57.457Z,83.40
2017-08-29T18:51:24.699Z,84.40
2017-08-29T18:53:52.989Z,84.80
2017-08-29T18:56:21.248Z,85.80
2017-08-29T18:58:48.856Z,86.90
2017-08-29T19:01:17.436Z,87.10
2017-08-29T19:03:45.061Z,87.40
2017-08-29T19:06:12.402Z,87.30
2017-08-29T19:08:42.958Z,88.00
2017-08-29T19:11:11.336Z,88.90
2017-08-29T19:13:38.848Z,88.70
2017-08-29T19:16:06.771Z,88.80
2017-08-29T19:18:35.397Z,88.10
2017-08-29T19:21:08.530Z,89.20
2017-08-29T19:23:40.872Z,89.50
2017-08-29T19:26:11.225Z,89.90
2017-08-29T19:34:45.323Z,90.20
2017-08-29T19:37:12.770Z,90.10
2017-08-29T19:39:40.038Z,90.10
2017-08-29T19:42:07.821Z,90.00
2017-08-29T19:44:35.429Z,90.30
2017-08-29T19:47:03.700Z,90.30
2017-08-29T19:49:32.196Z,90.40
2017-08-29T19:51:59.701Z,90.40
2017-08-29T19:54:27.613Z,90.50
2017-08-29T19:56:55.682Z,90.60
2017-08-29T19:59:23.202Z,90.90
2017-08-29T20:01:50.717Z,91.20
2017-08-29T20:04:19.761Z,91.30
2017-08-29T20:06:47.260Z,91.50
2017-08-29T20:09:13.745Z,91.50
2017-08-29T20:11:40.102Z,91.50
2017-08-29T20:14:06.378Z,91.30
2017-08-29T20:16:32.666Z,91.30
2017-08-29T20:18:59.622Z,91.40
2017-08-29T20:21:25.872Z,91.40
2017-08-29T20:23:52.131Z,91.40
2017-08-29T20:26:18.777Z,91.40
2017-08-29T20:28:45.032Z,91.50
2017-08-29T20:31:11.271Z,91.50
2017-08-29T20:33:37.520Z,91.60
2017-08-29T20:36:03.797Z,91.70
2017-08-29T20:38:30.040Z,92.10
2017-08-29T20:40:56.512Z,91.90
2017-08-29T20:43:22.868Z,91.80
2017-08-29T20:45:49.215Z,91.90
2017-08-29T20:48:15.752Z,91.90
2017-08-29T20:50:42.123Z,91.90
2017-08-29T20:53:08.456Z,92.20
2017-08-29T20:55:35.718Z,92.20
2017-08-29T20:58:02.088Z,92.30
2017-08-29T21:00:28.551Z,92.40
2017-08-29T21:02:54.960Z,92.60
2017-08-29T21:05:22.580Z,92.70
2017-08-29T21:07:48.992Z,92.80
2017-08-29T21:10:15.343Z,93.00
2017-08-29T21:12:42.545Z,93.20
2017-08-29T21:15:08.910Z,93.50
2017-08-29T21:17:35.889Z,93.60
2017-08-29T21:20:03.176Z,93.90
2017-08-29T21:22:32.036Z,94.00
2017-08-29T21:24:59.121Z,94.20
2017-08-29T21:27:25.357Z,94.40
2017-08-29T21:29:51.593Z,94.50
2017-08-29T21:32:18.089Z,94.50
2017-08-29T21:34:44.385Z,94.70
2017-08-29T21:37:10.993Z,94.70
2017-08-29T21:39:37.261Z,94.80
2017-08-29T21:42:03.637Z,94.90
2017-08-29T21:44:30.009Z,94.90
2017-08-29T21:46:56.272Z,94.90
2017-08-29T21:49:22.536Z,94.90
2017-08-29T21:51:48.765Z,94.90
2017-08-29T21:54:15.028Z,94.90
2017-08-29T21:56:41.292Z,95.10
2017-08-29T21:59:07.560Z,95.10
2017-08-29T22:01:33.901Z,95.20
2017-08-29T22:04:00.153Z,95.40
2017-08-29T22:06:26.753Z,95.40
2017-08-29T22:08:52.981Z,95.80
2017-08-29T22:11:19.248Z,95.50
2017-08-29T22:13:45.637Z,95.70
2017-08-29T22:16:11.870Z,95.80
2017-08-29T22:18:38.127Z,95.90
2017-08-29T22:21:04.392Z,96.10
2017-08-29T22:23:30.613Z,96.10
2017-08-29T22:25:56.861Z,96.20
2017-08-29T22:28:23.160Z,96.30
2017-08-29T22:30:49.365Z,96.60
2017-08-29T22:33:15.697Z,96.30
2017-08-29T22:35:42.311Z,96.40
2017-08-29T22:38:09.308Z,96.40
2017-08-29T22:40:35.721Z,96.40
2017-08-29T22:43:01.968Z,96.40
2017-08-29T22:45:28.208Z,96.50
2017-08-29T22:47:54.441Z,96.50
2017-08-29T22:50:20.856Z,96.50
2017-08-29T22:52:47.077Z,96.60
2017-08-29T22:55:13.304Z,96.60
2017-08-29T22:57:39.520Z,96.80
2017-08-29T23:00:05.827Z,97.10
2017-08-29T23:02:32.082Z,97.30
2017-08-29T23:04:58.325Z,97.40
2017-08-29T23:07:24.548Z,97.50
2017-08-29T23:09:50.816Z,97.70
2017-08-29T23:12:17.103Z,97.80
2017-08-29T23:14:43.326Z,97.70
2017-08-29T23:17:09.566Z,97.90
2017-08-29T23:19:36.551Z,98.10
2017-08-29T23:22:02.829Z,98.10
2017-08-29T23:24:29.067Z,98.30
2017-08-29T23:26:55.300Z,98.30
2017-08-29T23:29:21.868Z,98.30
2017-08-29T23:31:48.464Z,98.40
2017-08-29T23:34:14.829Z,98.40
2017-08-29T23:36:41.266Z,98.20
2017-08-29T23:39:07.814Z,98.30
2017-08-29T23:41:34.063Z,98.10
2017-08-29T23:44:00.300Z,98.20
2017-08-29T23:46:26.593Z,98.20
2017-08-29T23:48:52.836Z,98.20
2017-08-29T23:51:19.115Z,98.30
2017-08-29T23:53:45.405Z,98.40
2017-08-29T23:56:11.631Z,98.50
2017-08-29T23:58:37.902Z,98.60
